Terminal Aerodrome Forecast
Issued by NWS Sterling, VA

Current Version | Previous Version | Graphics & Text | Print | Product List | Glossary On
Versions: 1 2 3 4 5 6 7 8 9 10 11 12 13 14
000
FTUS41 KLWX 151737
TAFMRB
TAF
KMRB 151737Z 1518/1618 VRB04KT P6SM BKN050 BKN130
     FM152300 27008KT P6SM SCT050 SCT250
     FM160800 24006KT P6SM SCT050 BKN130
     FM161500 24008G16KT P6SM SCT050 BKN130=

USA.gov is the U.S. government's official web portal to all federal, state and local government web resources and services.